Impacts TAF Board
For situational awareness. Not to be used for flight planning purposes.
IDs:

KINW - Winslow/Lindberg Rgn, AZ, US

Issued at 1904 UTC 08 Aug 2020
Updated at 2032 UTC 08 Aug 2020
Potential Impact None Slight Moderate High
Time1956Z 08/21Z 08/22Z 08/23Z 09/00Z 09/01Z 09/02Z 09/03Z 09/04Z 09/05Z 09/06Z 09/07Z 09/08Z 09/09Z>>
Type OBS PRVL PRVL PRVL PRVL PRVL PRVL PRVL PRVL PRVL PRVL PRVL PRVL PRVL
VIS 10 >6 >6 >6 >6 >6 >6 >6 >6 >6 >6 >6 >6 >6
CIG -- -- -- -- -- -- -- -- -- -- -- -- -- --
Cover FEW SCT SCT SCT SCT SCT SCT SKC SKC SKC SKC SKC SKC SKC
FltCat VFR VFR VFR VFR VFR VFR VFR VFR VFR VFR VFR VFR VFR VFR
WX -- VCTS VCTS VCTS VCTS VCTS VCTS -- -- -- -- -- -- --
WDir 120 220 220 220 220 220 220 200 200 200 200 200 200 200
WSpd 4 11 11 11 11 11 11 8 8 8 8 8 8 8
WGst -- 20 20 20 20 20 20 -- -- -- -- -- -- --
Raw TAF
KINW 081904Z 0819/0918 10010KT P6SM VCTS SCT090CB
  FM082000 22011G20KT P6SM VCTS SCT090CB
  FM090300 20008KT P6SM SKC


Raw METAR
KINW 081956Z AUTO 12004KT 10SM FEW100 FEW120 32/08 A3017 RMK AO2 RAE18 TSE15 SLP134 P0000 T03170083
KINW 081921Z AUTO VRB05KT 10SM FEW032 FEW090 SCT110 31/09 A3018 RMK AO2 LTG DSNT NE AND SE RAE18 TSE15 P0000 T03060089
KINW 081906Z AUTO 11014G21KT 10SM -TSRA FEW042 BKN100 OVC110 28/12 A3019 RMK AO2 P0000 T02780117
KINW 081756Z AUTO VRB04KT 10SM CLR 32/07 A3020 RMK AO2 SLP138 T03220067 10322 20167 58015

METAR Board
Radar Display
Forecast Discussion
For situational awareness. Not to be used for flight planning purposes.